sensor_id;sensor_type;location;lat;lon;timestamp;P1;durP1;ratioP1;P2;durP2;ratioP2
23113;SDS011;11726;50.122;8.832;2023-03-03T00:00:54;21.73;;;14.60;;
23113;SDS011;11726;50.122;8.832;2023-03-03T00:03:21;20.55;;;14.07;;
23113;SDS011;11726;50.122;8.832;2023-03-03T00:05:50;24.75;;;16.05;;
23113;SDS011;11726;50.122;8.832;2023-03-03T00:08:17;21.80;;;14.70;;
23113;SDS011;11726;50.122;8.832;2023-03-03T00:10:45;24.67;;;14.90;;
23113;SDS011;11726;50.122;8.832;2023-03-03T00:13:14;22.90;;;14.88;;
23113;SDS011;11726;50.122;8.832;2023-03-03T00:15:46;24.67;;;16.00;;
23113;SDS011;11726;50.122;8.832;2023-03-03T00:18:35;23.30;;;15.02;;
23113;SDS011;11726;50.122;8.832;2023-03-03T00:21:01;25.33;;;15.63;;
23113;SDS011;11726;50.122;8.832;2023-03-03T00:26:07;26.20;;;15.85;;
23113;SDS011;11726;50.122;8.832;2023-03-03T00:28:44;21.98;;;15.57;;
23113;SDS011;11726;50.122;8.832;2023-03-03T00:31:18;24.88;;;16.40;;
23113;SDS011;11726;50.122;8.832;2023-03-03T00:33:56;28.88;;;16.70;;
23113;SDS011;11726;50.122;8.832;2023-03-03T00:36:42;23.60;;;15.10;;
23113;SDS011;11726;50.122;8.832;2023-03-03T00:39:22;23.63;;;16.00;;
23113;SDS011;11726;50.122;8.832;2023-03-03T00:42:13;23.92;;;15.32;;
23113;SDS011;11726;50.122;8.832;2023-03-03T00:49:41;23.48;;;15.50;;
23113;SDS011;11726;50.122;8.832;2023-03-03T00:52:18;29.25;;;17.38;;
23113;SDS011;11726;50.122;8.832;2023-03-03T00:54:46;22.65;;;16.13;;
23113;SDS011;11726;50.122;8.832;2023-03-03T00:57:12;30.35;;;16.48;;
23113;SDS011;11726;50.122;8.832;2023-03-03T00:59:39;25.10;;;16.48;;
23113;SDS011;11726;50.122;8.832;2023-03-03T01:02:06;29.50;;;16.60;;
23113;SDS011;11726;50.122;8.832;2023-03-03T01:04:33;27.65;;;17.25;;
23113;SDS011;11726;50.122;8.832;2023-03-03T01:06:59;24.15;;;16.67;;
23113;SDS011;11726;50.122;8.832;2023-03-03T01:09:26;26.00;;;17.13;;
23113;SDS011;11726;50.122;8.832;2023-03-03T01:25:41;29.17;;;17.85;;
23113;SDS011;11726;50.122;8.832;2023-03-03T01:28:08;29.95;;;18.10;;
23113;SDS011;11726;50.122;8.832;2023-03-03T01:30:35;30.08;;;18.55;;
23113;SDS011;11726;50.122;8.832;2023-03-03T01:33:02;30.52;;;20.23;;
23113;SDS011;11726;50.122;8.832;2023-03-03T01:35:28;30.73;;;18.95;;
23113;SDS011;11726;50.122;8.832;2023-03-03T01:37:55;29.42;;;19.33;;
23113;SDS011;11726;50.122;8.832;2023-03-03T01:40:24;30.08;;;19.23;;
23113;SDS011;11726;50.122;8.832;2023-03-03T01:42:52;33.63;;;21.02;;
23113;SDS011;11726;50.122;8.832;2023-03-03T01:45:21;34.47;;;20.77;;
23113;SDS011;11726;50.122;8.832;2023-03-03T01:53:02;33.15;;;20.30;;
23113;SDS011;11726;50.122;8.832;2023-03-03T01:55:35;35.88;;;23.20;;
23113;SDS011;11726;50.122;8.832;2023-03-03T01:58:07;35.53;;;22.20;;
23113;SDS011;11726;50.122;8.832;2023-03-03T02:00:44;31.90;;;21.15;;
23113;SDS011;11726;50.122;8.832;2023-03-03T02:03:15;35.17;;;21.17;;
23113;SDS011;11726;50.122;8.832;2023-03-03T02:05:45;36.92;;;22.98;;
23113;SDS011;11726;50.122;8.832;2023-03-03T02:08:12;38.75;;;23.73;;
23113;SDS011;11726;50.122;8.832;2023-03-03T02:10:44;38.50;;;23.13;;
23113;SDS011;11726;50.122;8.832;2023-03-03T02:13:12;38.00;;;23.73;;
23113;SDS011;11726;50.122;8.832;2023-03-03T02:15:39;40.55;;;23.50;;
23113;SDS011;11726;50.122;8.832;2023-03-03T02:18:08;38.70;;;23.90;;
23113;SDS011;11726;50.122;8.832;2023-03-03T02:26:08;41.65;;;24.30;;
23113;SDS011;11726;50.122;8.832;2023-03-03T02:28:37;37.85;;;23.52;;
23113;SDS011;11726;50.122;8.832;2023-03-03T02:31:06;44.35;;;26.73;;
23113;SDS011;11726;50.122;8.832;2023-03-03T02:33:42;39.97;;;24.98;;
23113;SDS011;11726;50.122;8.832;2023-03-03T02:36:13;38.67;;;24.13;;
23113;SDS011;11726;50.122;8.832;2023-03-03T02:41:53;39.40;;;23.25;;
23113;SDS011;11726;50.122;8.832;2023-03-03T02:44:26;40.90;;;25.58;;
23113;SDS011;11726;50.122;8.832;2023-03-03T02:46:54;42.45;;;25.25;;
23113;SDS011;11726;50.122;8.832;2023-03-03T02:49:28;39.92;;;24.02;;
23113;SDS011;11726;50.122;8.832;2023-03-03T02:51:58;44.38;;;25.45;;
23113;SDS011;11726;50.122;8.832;2023-03-03T02:54:26;42.42;;;25.30;;
23113;SDS011;11726;50.122;8.832;2023-03-03T02:56:55;44.67;;;26.02;;
23113;SDS011;11726;50.122;8.832;2023-03-03T02:59:23;42.28;;;25.58;;
23113;SDS011;11726;50.122;8.832;2023-03-03T03:01:49;43.15;;;26.40;;
23113;SDS011;11726;50.122;8.832;2023-03-03T03:04:18;43.70;;;26.13;;
23113;SDS011;11726;50.122;8.832;2023-03-03T03:06:46;47.70;;;27.05;;
23113;SDS011;11726;50.122;8.832;2023-03-03T03:09:14;42.45;;;26.23;;
23113;SDS011;11726;50.122;8.832;2023-03-03T03:11:41;47.17;;;27.92;;
23113;SDS011;11726;50.122;8.832;2023-03-03T03:14:09;48.25;;;28.38;;
23113;SDS011;11726;50.122;8.832;2023-03-03T03:16:37;46.78;;;28.02;;
23113;SDS011;11726;50.122;8.832;2023-03-03T03:19:04;45.47;;;27.50;;
23113;SDS011;11726;50.122;8.832;2023-03-03T03:21:32;46.95;;;28.45;;
23113;SDS011;11726;50.122;8.832;2023-03-03T03:23:58;49.42;;;28.42;;
23113;SDS011;11726;50.122;8.832;2023-03-03T03:26:25;49.92;;;28.15;;
23113;SDS011;11726;50.122;8.832;2023-03-03T03:28:52;50.17;;;28.50;;
23113;SDS011;11726;50.122;8.832;2023-03-03T03:31:19;49.08;;;28.25;;
23113;SDS011;11726;50.122;8.832;2023-03-03T03:33:47;49.42;;;29.00;;
23113;SDS011;11726;50.122;8.832;2023-03-03T03:36:14;49.40;;;29.42;;
23113;SDS011;11726;50.122;8.832;2023-03-03T03:38:41;53.58;;;30.33;;
23113;SDS011;11726;50.122;8.832;2023-03-03T03:41:09;47.00;;;28.10;;
23113;SDS011;11726;50.122;8.832;2023-03-03T03:43:38;51.15;;;30.27;;
23113;SDS011;11726;50.122;8.832;2023-03-03T03:46:05;49.80;;;29.13;;
23113;SDS011;11726;50.122;8.832;2023-03-03T03:48:32;54.25;;;30.70;;
23113;SDS011;11726;50.122;8.832;2023-03-03T03:50:59;51.95;;;29.20;;
23113;SDS011;11726;50.122;8.832;2023-03-03T03:53:26;50.60;;;28.83;;
23113;SDS011;11726;50.122;8.832;2023-03-03T03:55:52;54.22;;;31.00;;
23113;SDS011;11726;50.122;8.832;2023-03-03T03:58:19;58.80;;;32.97;;
23113;SDS011;11726;50.122;8.832;2023-03-03T04:00:46;57.17;;;31.35;;
23113;SDS011;11726;50.122;8.832;2023-03-03T04:03:13;53.85;;;31.10;;
23113;SDS011;11726;50.122;8.832;2023-03-03T04:05:40;53.00;;;30.48;;
23113;SDS011;11726;50.122;8.832;2023-03-03T04:08:07;57.13;;;31.15;;
23113;SDS011;11726;50.122;8.832;2023-03-03T04:10:34;52.90;;;30.40;;
23113;SDS011;11726;50.122;8.832;2023-03-03T04:13:01;59.10;;;32.10;;
23113;SDS011;11726;50.122;8.832;2023-03-03T04:15:28;56.85;;;31.83;;
23113;SDS011;11726;50.122;8.832;2023-03-03T04:17:54;57.13;;;31.77;;
23113;SDS011;11726;50.122;8.832;2023-03-03T04:20:21;58.45;;;33.38;;
23113;SDS011;11726;50.122;8.832;2023-03-03T04:22:48;63.42;;;34.80;;
23113;SDS011;11726;50.122;8.832;2023-03-03T04:25:15;56.20;;;32.08;;
23113;SDS011;11726;50.122;8.832;2023-03-03T04:27:42;61.70;;;33.30;;
23113;SDS011;11726;50.122;8.832;2023-03-03T04:30:10;63.00;;;33.65;;
23113;SDS011;11726;50.122;8.832;2023-03-03T04:32:37;64.15;;;34.92;;
23113;SDS011;11726;50.122;8.832;2023-03-03T04:35:04;60.28;;;33.75;;
23113;SDS011;11726;50.122;8.832;2023-03-03T04:37:34;56.60;;;33.10;;
23113;SDS011;11726;50.122;8.832;2023-03-03T04:40:05;65.45;;;35.38;;
23113;SDS011;11726;50.122;8.832;2023-03-03T04:42:33;58.78;;;33.97;;
23113;SDS011;11726;50.122;8.832;2023-03-03T04:45:00;61.38;;;33.67;;
23113;SDS011;11726;50.122;8.832;2023-03-03T04:47:27;58.70;;;33.60;;
23113;SDS011;11726;50.122;8.832;2023-03-03T04:49:54;65.82;;;35.22;;
23113;SDS011;11726;50.122;8.832;2023-03-03T04:52:21;61.42;;;33.97;;
23113;SDS011;11726;50.122;8.832;2023-03-03T04:54:47;62.40;;;35.10;;
23113;SDS011;11726;50.122;8.832;2023-03-03T04:57:14;62.65;;;34.17;;
23113;SDS011;11726;50.122;8.832;2023-03-03T04:59:40;66.63;;;37.10;;
23113;SDS011;11726;50.122;8.832;2023-03-03T05:02:07;67.75;;;36.30;;
23113;SDS011;11726;50.122;8.832;2023-03-03T05:04:34;68.90;;;36.05;;
23113;SDS011;11726;50.122;8.832;2023-03-03T05:07:00;64.60;;;35.55;;
23113;SDS011;11726;50.122;8.832;2023-03-03T05:09:27;63.97;;;35.78;;
23113;SDS011;11726;50.122;8.832;2023-03-03T05:11:54;71.97;;;38.55;;
23113;SDS011;11726;50.122;8.832;2023-03-03T05:14:20;64.13;;;36.40;;
23113;SDS011;11726;50.122;8.832;2023-03-03T05:16:47;68.20;;;36.97;;
23113;SDS011;11726;50.122;8.832;2023-03-03T05:19:14;61.80;;;35.20;;
23113;SDS011;11726;50.122;8.832;2023-03-03T05:21:40;65.28;;;35.55;;
23113;SDS011;11726;50.122;8.832;2023-03-03T05:24:08;66.88;;;37.10;;
23113;SDS011;11726;50.122;8.832;2023-03-03T05:26:35;67.25;;;36.65;;
23113;SDS011;11726;50.122;8.832;2023-03-03T05:29:02;66.35;;;35.45;;
23113;SDS011;11726;50.122;8.832;2023-03-03T05:31:29;68.18;;;36.83;;
23113;SDS011;11726;50.122;8.832;2023-03-03T05:33:56;70.38;;;38.30;;
23113;SDS011;11726;50.122;8.832;2023-03-03T05:36:23;69.32;;;36.92;;
23113;SDS011;11726;50.122;8.832;2023-03-03T05:38:50;68.03;;;38.70;;
23113;SDS011;11726;50.122;8.832;2023-03-03T05:41:17;69.80;;;37.05;;
23113;SDS011;11726;50.122;8.832;2023-03-03T05:43:44;68.00;;;35.78;;
23113;SDS011;11726;50.122;8.832;2023-03-03T05:46:10;69.53;;;36.58;;
23113;SDS011;11726;50.122;8.832;2023-03-03T05:48:37;78.25;;;39.75;;
23113;SDS011;11726;50.122;8.832;2023-03-03T05:51:04;75.65;;;39.30;;
23113;SDS011;11726;50.122;8.832;2023-03-03T05:53:31;66.22;;;36.67;;
23113;SDS011;11726;50.122;8.832;2023-03-03T05:55:59;69.88;;;37.03;;
23113;SDS011;11726;50.122;8.832;2023-03-03T05:58:26;68.82;;;37.10;;
23113;SDS011;11726;50.122;8.832;2023-03-03T06:00:53;67.47;;;36.25;;
23113;SDS011;11726;50.122;8.832;2023-03-03T06:03:20;74.18;;;39.83;;
23113;SDS011;11726;50.122;8.832;2023-03-03T06:05:47;70.07;;;37.72;;
23113;SDS011;11726;50.122;8.832;2023-03-03T06:08:13;70.03;;;36.80;;
23113;SDS011;11726;50.122;8.832;2023-03-03T06:10:40;66.85;;;36.30;;
23113;SDS011;11726;50.122;8.832;2023-03-03T06:13:07;72.00;;;38.50;;
23113;SDS011;11726;50.122;8.832;2023-03-03T06:15:33;68.15;;;36.13;;
23113;SDS011;11726;50.122;8.832;2023-03-03T06:18:00;74.63;;;38.30;;
23113;SDS011;11726;50.122;8.832;2023-03-03T06:20:27;73.28;;;38.30;;
23113;SDS011;11726;50.122;8.832;2023-03-03T06:22:53;69.82;;;36.35;;
23113;SDS011;11726;50.122;8.832;2023-03-03T06:25:20;72.43;;;38.10;;
23113;SDS011;11726;50.122;8.832;2023-03-03T06:27:47;68.38;;;35.40;;
23113;SDS011;11726;50.122;8.832;2023-03-03T06:30:13;68.45;;;36.20;;
23113;SDS011;11726;50.122;8.832;2023-03-03T06:32:40;72.18;;;38.80;;
23113;SDS011;11726;50.122;8.832;2023-03-03T06:35:07;71.60;;;37.13;;
23113;SDS011;11726;50.122;8.832;2023-03-03T06:37:34;70.00;;;37.30;;
23113;SDS011;11726;50.122;8.832;2023-03-03T06:40:00;66.72;;;36.05;;
23113;SDS011;11726;50.122;8.832;2023-03-03T06:42:29;73.35;;;37.95;;
23113;SDS011;11726;50.122;8.832;2023-03-03T06:44:55;65.72;;;35.58;;
23113;SDS011;11726;50.122;8.832;2023-03-03T06:47:22;69.38;;;37.15;;
23113;SDS011;11726;50.122;8.832;2023-03-03T06:49:49;68.25;;;35.45;;
23113;SDS011;11726;50.122;8.832;2023-03-03T06:52:22;65.82;;;34.80;;
23113;SDS011;11726;50.122;8.832;2023-03-03T06:54:52;68.22;;;35.42;;
23113;SDS011;11726;50.122;8.832;2023-03-03T06:57:30;67.72;;;36.22;;
23113;SDS011;11726;50.122;8.832;2023-03-03T07:00:09;63.60;;;34.83;;
23113;SDS011;11726;50.122;8.832;2023-03-03T07:03:01;68.57;;;36.08;;
23113;SDS011;11726;50.122;8.832;2023-03-03T07:05:37;68.22;;;35.65;;
23113;SDS011;11726;50.122;8.832;2023-03-03T07:08:14;67.82;;;37.03;;
23113;SDS011;11726;50.122;8.832;2023-03-03T07:10:42;69.63;;;38.15;;
23113;SDS011;11726;50.122;8.832;2023-03-03T07:13:17;69.97;;;38.53;;
23113;SDS011;11726;50.122;8.832;2023-03-03T07:15:44;69.55;;;38.90;;
23113;SDS011;11726;50.122;8.832;2023-03-03T07:18:56;73.93;;;38.85;;
23113;SDS011;11726;50.122;8.832;2023-03-03T07:21:45;72.00;;;38.70;;
23113;SDS011;11726;50.122;8.832;2023-03-03T07:23:55;74.53;;;39.40;;
23113;SDS011;11726;50.122;8.832;2023-03-03T07:26:25;78.13;;;41.25;;
23113;SDS011;11726;50.122;8.832;2023-03-03T07:29:00;72.55;;;38.92;;
23113;SDS011;11726;50.122;8.832;2023-03-03T07:34:00;77.40;;;40.83;;
23113;SDS011;11726;50.122;8.832;2023-03-03T07:36:34;73.18;;;39.38;;
23113;SDS011;11726;50.122;8.832;2023-03-03T07:39:03;77.68;;;40.47;;
23113;SDS011;11726;50.122;8.832;2023-03-03T07:42:08;71.80;;;39.13;;
23113;SDS011;11726;50.122;8.832;2023-03-03T07:44:49;69.03;;;37.08;;
23113;SDS011;11726;50.122;8.832;2023-03-03T07:49:52;64.45;;;36.10;;
23113;SDS011;11726;50.122;8.832;2023-03-03T07:54:56;63.63;;;35.03;;
23113;SDS011;11726;50.122;8.832;2023-03-03T07:57:33;63.60;;;34.45;;
23113;SDS011;11726;50.122;8.832;2023-03-03T08:02:55;62.67;;;34.60;;
23113;SDS011;11726;50.122;8.832;2023-03-03T08:05:35;62.38;;;33.85;;
23113;SDS011;11726;50.122;8.832;2023-03-03T08:10:48;60.72;;;33.53;;
23113;SDS011;11726;50.122;8.832;2023-03-03T08:13:21;59.60;;;32.88;;
23113;SDS011;11726;50.122;8.832;2023-03-03T08:18:45;63.30;;;34.90;;
23113;SDS011;11726;50.122;8.832;2023-03-03T08:21:23;62.78;;;34.67;;
23113;SDS011;11726;50.122;8.832;2023-03-03T08:23:51;60.72;;;33.80;;
23113;SDS011;11726;50.122;8.832;2023-03-03T08:26:19;61.03;;;34.35;;
23113;SDS011;11726;50.122;8.832;2023-03-03T08:28:47;59.75;;;34.38;;
23113;SDS011;11726;50.122;8.832;2023-03-03T08:31:14;59.97;;;32.78;;
23113;SDS011;11726;50.122;8.832;2023-03-03T08:34:02;58.70;;;32.13;;
23113;SDS011;11726;50.122;8.832;2023-03-03T08:36:29;53.05;;;30.60;;
23113;SDS011;11726;50.122;8.832;2023-03-03T08:38:59;54.00;;;30.25;;
23113;SDS011;11726;50.122;8.832;2023-03-03T08:41:26;57.33;;;32.55;;
23113;SDS011;11726;50.122;8.832;2023-03-03T08:43:53;56.65;;;31.45;;
23113;SDS011;11726;50.122;8.832;2023-03-03T08:46:19;55.78;;;32.25;;
23113;SDS011;11726;50.122;8.832;2023-03-03T08:48:46;57.28;;;32.83;;
23113;SDS011;11726;50.122;8.832;2023-03-03T08:51:13;59.08;;;32.33;;
23113;SDS011;11726;50.122;8.832;2023-03-03T08:53:39;58.83;;;33.63;;
23113;SDS011;11726;50.122;8.832;2023-03-03T08:56:06;57.20;;;32.10;;
23113;SDS011;11726;50.122;8.832;2023-03-03T08:58:35;56.80;;;31.75;;
23113;SDS011;11726;50.122;8.832;2023-03-03T09:01:02;49.92;;;30.27;;
23113;SDS011;11726;50.122;8.832;2023-03-03T09:03:29;52.42;;;29.23;;
23113;SDS011;11726;50.122;8.832;2023-03-03T09:05:55;47.10;;;28.88;;
23113;SDS011;11726;50.122;8.832;2023-03-03T09:08:22;50.17;;;29.45;;
23113;SDS011;11726;50.122;8.832;2023-03-03T09:10:49;49.63;;;29.35;;
23113;SDS011;11726;50.122;8.832;2023-03-03T09:13:16;44.90;;;27.50;;
23113;SDS011;11726;50.122;8.832;2023-03-03T09:15:44;49.28;;;27.92;;
23113;SDS011;11726;50.122;8.832;2023-03-03T09:18:19;51.33;;;29.92;;
23113;SDS011;11726;50.122;8.832;2023-03-03T09:20:53;48.92;;;28.67;;
23113;SDS011;11726;50.122;8.832;2023-03-03T09:25:49;50.60;;;29.80;;
23113;SDS011;11726;50.122;8.832;2023-03-03T09:28:24;51.42;;;29.27;;
23113;SDS011;11726;50.122;8.832;2023-03-03T09:31:01;51.03;;;28.25;;
23113;SDS011;11726;50.122;8.832;2023-03-03T09:33:42;46.72;;;28.08;;
23113;SDS011;11726;50.122;8.832;2023-03-03T09:38:49;42.35;;;25.85;;
23113;SDS011;11726;50.122;8.832;2023-03-03T09:41:23;46.15;;;27.80;;
23113;SDS011;11726;50.122;8.832;2023-03-03T09:49:09;45.72;;;27.05;;
23113;SDS011;11726;50.122;8.832;2023-03-03T09:52:06;45.20;;;27.27;;
23113;SDS011;11726;50.122;8.832;2023-03-03T10:00:41;47.97;;;27.77;;
23113;SDS011;11726;50.122;8.832;2023-03-03T10:03:34;47.72;;;27.50;;
23113;SDS011;11726;50.122;8.832;2023-03-03T10:11:20;47.22;;;26.90;;
23113;SDS011;11726;50.122;8.832;2023-03-03T10:16:57;44.08;;;25.38;;
23113;SDS011;11726;50.122;8.832;2023-03-03T10:19:35;44.55;;;25.35;;
23113;SDS011;11726;50.122;8.832;2023-03-03T10:22:15;44.25;;;25.75;;
23113;SDS011;11726;50.122;8.832;2023-03-03T10:24:53;43.85;;;24.25;;
23113;SDS011;11726;50.122;8.832;2023-03-03T10:28:03;40.65;;;23.65;;
23113;SDS011;11726;50.122;8.832;2023-03-03T10:30:51;41.03;;;23.70;;
23113;SDS011;11726;50.122;8.832;2023-03-03T10:33:45;39.88;;;22.10;;
23113;SDS011;11726;50.122;8.832;2023-03-03T10:36:37;42.00;;;23.90;;
23113;SDS011;11726;50.122;8.832;2023-03-03T10:44:40;37.13;;;21.63;;
23113;SDS011;11726;50.122;8.832;2023-03-03T10:47:25;35.20;;;21.43;;
23113;SDS011;11726;50.122;8.832;2023-03-03T10:52:45;36.83;;;20.85;;
23113;SDS011;11726;50.122;8.832;2023-03-03T10:55:53;35.53;;;20.65;;
23113;SDS011;11726;50.122;8.832;2023-03-03T10:58:43;32.67;;;19.55;;
23113;SDS011;11726;50.122;8.832;2023-03-03T11:04:20;32.92;;;19.30;;
23113;SDS011;11726;50.122;8.832;2023-03-03T11:07:26;31.05;;;18.00;;
23113;SDS011;11726;50.122;8.832;2023-03-03T11:18:56;30.90;;;17.92;;
23113;SDS011;11726;50.122;8.832;2023-03-03T11:21:39;28.70;;;17.50;;
23113;SDS011;11726;50.122;8.832;2023-03-03T11:41:36;29.27;;;16.58;;
23113;SDS011;11726;50.122;8.832;2023-03-03T11:43:58;27.75;;;16.92;;
23113;SDS011;11726;50.122;8.832;2023-03-03T11:46:41;29.80;;;17.02;;
23113;SDS011;11726;50.122;8.832;2023-03-03T11:55:18;29.10;;;16.60;;
23113;SDS011;11726;50.122;8.832;2023-03-03T11:58:06;30.45;;;16.13;;
23113;SDS011;11726;50.122;8.832;2023-03-03T12:00:42;31.98;;;16.33;;
23113;SDS011;11726;50.122;8.832;2023-03-03T12:03:39;25.05;;;15.45;;
23113;SDS011;11726;50.122;8.832;2023-03-03T12:06:32;25.77;;;14.82;;
23113;SDS011;11726;50.122;8.832;2023-03-03T12:17:28;26.45;;;15.45;;
23113;SDS011;11726;50.122;8.832;2023-03-03T12:20:12;25.88;;;14.88;;
23113;SDS011;11726;50.122;8.832;2023-03-03T12:23:09;46.20;;;29.10;;
23113;SDS011;11726;50.122;8.832;2023-03-03T12:25:50;26.13;;;14.40;;
23113;SDS011;11726;50.122;8.832;2023-03-03T12:28:36;23.45;;;14.48;;
23113;SDS011;11726;50.122;8.832;2023-03-03T12:34:32;25.42;;;14.88;;
23113;SDS011;11726;50.122;8.832;2023-03-03T12:37:27;29.30;;;18.30;;
23113;SDS011;11726;50.122;8.832;2023-03-03T12:40:25;23.85;;;14.55;;
23113;SDS011;11726;50.122;8.832;2023-03-03T12:48:41;24.63;;;14.80;;
23113;SDS011;11726;50.122;8.832;2023-03-03T12:51:11;23.02;;;13.57;;
23113;SDS011;11726;50.122;8.832;2023-03-03T12:56:54;22.23;;;13.68;;
23113;SDS011;11726;50.122;8.832;2023-03-03T13:02:42;22.23;;;14.00;;
23113;SDS011;11726;50.122;8.832;2023-03-03T13:07:57;24.92;;;14.32;;
23113;SDS011;11726;50.122;8.832;2023-03-03T13:13:36;22.27;;;13.85;;
23113;SDS011;11726;50.122;8.832;2023-03-03T13:16:19;23.17;;;13.35;;
23113;SDS011;11726;50.122;8.832;2023-03-03T13:24:36;20.98;;;12.90;;
23113;SDS011;11726;50.122;8.832;2023-03-03T13:30:19;20.08;;;13.25;;
23113;SDS011;11726;50.122;8.832;2023-03-03T13:32:52;21.95;;;13.82;;
23113;SDS011;11726;50.122;8.832;2023-03-03T13:35:43;20.52;;;13.18;;
23113;SDS011;11726;50.122;8.832;2023-03-03T13:38:17;20.17;;;13.32;;
23113;SDS011;11726;50.122;8.832;2023-03-03T13:43:17;20.27;;;14.23;;
23113;SDS011;11726;50.122;8.832;2023-03-03T13:48:47;20.73;;;12.88;;
23113;SDS011;11726;50.122;8.832;2023-03-03T14:08:12;17.83;;;12.02;;
23113;SDS011;11726;50.122;8.832;2023-03-03T14:13:49;18.67;;;12.32;;
23113;SDS011;11726;50.122;8.832;2023-03-03T14:21:42;18.05;;;11.40;;
23113;SDS011;11726;50.122;8.832;2023-03-03T14:24:20;19.13;;;12.10;;
23113;SDS011;11726;50.122;8.832;2023-03-03T14:31:54;16.40;;;11.38;;
23113;SDS011;11726;50.122;8.832;2023-03-03T14:36:48;16.42;;;11.27;;
23113;SDS011;11726;50.122;8.832;2023-03-03T14:41:57;17.40;;;11.50;;
23113;SDS011;11726;50.122;8.832;2023-03-03T14:44:30;16.30;;;10.93;;
23113;SDS011;11726;50.122;8.832;2023-03-03T14:47:21;18.85;;;11.10;;
23113;SDS011;11726;50.122;8.832;2023-03-03T14:49:50;16.63;;;10.77;;
23113;SDS011;11726;50.122;8.832;2023-03-03T14:52:24;16.35;;;11.18;;
23113;SDS011;11726;50.122;8.832;2023-03-03T14:54:55;18.92;;;11.32;;
23113;SDS011;11726;50.122;8.832;2023-03-03T15:00:04;16.77;;;10.98;;
23113;SDS011;11726;50.122;8.832;2023-03-03T15:02:40;16.83;;;11.48;;
23113;SDS011;11726;50.122;8.832;2023-03-03T15:07:49;17.30;;;11.90;;
23113;SDS011;11726;50.122;8.832;2023-03-03T15:10:25;18.58;;;12.27;;
23113;SDS011;11726;50.122;8.832;2023-03-03T15:15:50;17.33;;;11.65;;
23113;SDS011;11726;50.122;8.832;2023-03-03T15:18:23;17.58;;;11.38;;
23113;SDS011;11726;50.122;8.832;2023-03-03T15:20:57;21.13;;;12.20;;
23113;SDS011;11726;50.122;8.832;2023-03-03T15:40:23;18.13;;;11.18;;
23113;SDS011;11726;50.122;8.832;2023-03-03T15:45:47;17.38;;;11.02;;
23113;SDS011;11726;50.122;8.832;2023-03-03T15:51:09;14.32;;;9.90;;
23113;SDS011;11726;50.122;8.832;2023-03-03T15:53:57;15.38;;;10.70;;
23113;SDS011;11726;50.122;8.832;2023-03-03T15:56:56;14.05;;;9.85;;
23113;SDS011;11726;50.122;8.832;2023-03-03T16:05:07;14.85;;;9.77;;
23113;SDS011;11726;50.122;8.832;2023-03-03T16:08:18;15.18;;;9.93;;
23113;SDS011;11726;50.122;8.832;2023-03-03T16:21:50;13.07;;;9.00;;
23113;SDS011;11726;50.122;8.832;2023-03-03T16:24:46;14.18;;;9.32;;
23113;SDS011;11726;50.122;8.832;2023-03-03T16:30:14;11.48;;;8.55;;
23113;SDS011;11726;50.122;8.832;2023-03-03T16:38:44;12.65;;;7.82;;
23113;SDS011;11726;50.122;8.832;2023-03-03T16:41:36;13.60;;;8.57;;
23113;SDS011;11726;50.122;8.832;2023-03-03T16:55:37;11.80;;;7.32;;
23113;SDS011;11726;50.122;8.832;2023-03-03T17:06:22;12.10;;;7.35;;
23113;SDS011;11726;50.122;8.832;2023-03-03T17:09:29;14.20;;;8.52;;
23113;SDS011;11726;50.122;8.832;2023-03-03T17:12:22;13.57;;;8.50;;
23113;SDS011;11726;50.122;8.832;2023-03-03T17:18:19;14.32;;;9.05;;
23113;SDS011;11726;50.122;8.832;2023-03-03T17:20:31;15.10;;;9.55;;
23113;SDS011;11726;50.122;8.832;2023-03-03T17:23:16;13.50;;;8.85;;
23113;SDS011;11726;50.122;8.832;2023-03-03T17:31:58;17.20;;;10.23;;
23113;SDS011;11726;50.122;8.832;2023-03-03T17:34:48;15.48;;;10.07;;
23113;SDS011;11726;50.122;8.832;2023-03-03T17:40:12;15.38;;;9.73;;
23113;SDS011;11726;50.122;8.832;2023-03-03T17:42:54;17.40;;;9.93;;
23113;SDS011;11726;50.122;8.832;2023-03-03T17:45:37;17.67;;;10.43;;
23113;SDS011;11726;50.122;8.832;2023-03-03T17:48:23;16.25;;;9.50;;
23113;SDS011;11726;50.122;8.832;2023-03-03T18:05:09;19.40;;;10.90;;
23113;SDS011;11726;50.122;8.832;2023-03-03T18:12:10;18.45;;;10.35;;
23113;SDS011;11726;50.122;8.832;2023-03-03T18:17:42;21.77;;;11.40;;
23113;SDS011;11726;50.122;8.832;2023-03-03T18:31:46;17.60;;;10.23;;
23113;SDS011;11726;50.122;8.832;2023-03-03T18:42:35;17.15;;;10.55;;
23113;SDS011;11726;50.122;8.832;2023-03-03T18:55:43;17.85;;;10.75;;
23113;SDS011;11726;50.122;8.832;2023-03-03T19:00:41;22.98;;;11.52;;
23113;SDS011;11726;50.122;8.832;2023-03-03T19:03:26;20.15;;;11.98;;
23113;SDS011;11726;50.122;8.832;2023-03-03T19:05:53;19.48;;;11.57;;
23113;SDS011;11726;50.122;8.832;2023-03-03T19:08:24;18.42;;;11.68;;
23113;SDS011;11726;50.122;8.832;2023-03-03T19:11:01;18.40;;;11.48;;
23113;SDS011;11726;50.122;8.832;2023-03-03T19:16:01;18.02;;;10.93;;
23113;SDS011;11726;50.122;8.832;2023-03-03T19:18:57;19.55;;;11.48;;
23113;SDS011;11726;50.122;8.832;2023-03-03T19:21:32;20.00;;;10.90;;
23113;SDS011;11726;50.122;8.832;2023-03-03T19:24:02;21.10;;;11.50;;
23113;SDS011;11726;50.122;8.832;2023-03-03T19:26:34;19.80;;;11.52;;
23113;SDS011;11726;50.122;8.832;2023-03-03T19:34:34;20.50;;;12.00;;
23113;SDS011;11726;50.122;8.832;2023-03-03T19:37:25;20.98;;;11.55;;
23113;SDS011;11726;50.122;8.832;2023-03-03T19:54:26;17.67;;;10.60;;
23113;SDS011;11726;50.122;8.832;2023-03-03T20:00:14;22.60;;;13.05;;
23113;SDS011;11726;50.122;8.832;2023-03-03T20:08:50;23.48;;;12.73;;
23113;SDS011;11726;50.122;8.832;2023-03-03T20:11:47;22.55;;;11.85;;
23113;SDS011;11726;50.122;8.832;2023-03-03T20:14:38;19.35;;;10.68;;
23113;SDS011;11726;50.122;8.832;2023-03-03T20:25:42;21.70;;;11.85;;
23113;SDS011;11726;50.122;8.832;2023-03-03T20:31:04;18.80;;;10.85;;
23113;SDS011;11726;50.122;8.832;2023-03-03T20:42:58;19.75;;;11.18;;
23113;SDS011;11726;50.122;8.832;2023-03-03T20:45:39;18.65;;;10.70;;
23113;SDS011;11726;50.122;8.832;2023-03-03T20:51:09;21.95;;;11.38;;
23113;SDS011;11726;50.122;8.832;2023-03-03T20:56:35;21.00;;;11.70;;
23113;SDS011;11726;50.122;8.832;2023-03-03T21:02:16;18.60;;;10.57;;
23113;SDS011;11726;50.122;8.832;2023-03-03T21:04:44;20.00;;;11.55;;
23113;SDS011;11726;50.122;8.832;2023-03-03T21:07:23;22.17;;;11.95;;
23113;SDS011;11726;50.122;8.832;2023-03-03T21:10:08;18.33;;;10.68;;
23113;SDS011;11726;50.122;8.832;2023-03-03T21:12:37;19.67;;;11.77;;
23113;SDS011;11726;50.122;8.832;2023-03-03T21:15:06;19.67;;;11.18;;
23113;SDS011;11726;50.122;8.832;2023-03-03T21:17:45;22.20;;;11.52;;
23113;SDS011;11726;50.122;8.832;2023-03-03T21:23:08;18.83;;;11.48;;
23113;SDS011;11726;50.122;8.832;2023-03-03T21:36:04;23.38;;;12.35;;
23113;SDS011;11726;50.122;8.832;2023-03-03T21:38:34;22.88;;;12.85;;
23113;SDS011;11726;50.122;8.832;2023-03-03T21:41:02;24.08;;;12.57;;
23113;SDS011;11726;50.122;8.832;2023-03-03T21:46:10;23.45;;;12.38;;
23113;SDS011;11726;50.122;8.832;2023-03-03T21:48:41;22.15;;;12.32;;
23113;SDS011;11726;50.122;8.832;2023-03-03T21:51:08;22.00;;;11.73;;
23113;SDS011;11726;50.122;8.832;2023-03-03T21:53:35;21.45;;;11.75;;
23113;SDS011;11726;50.122;8.832;2023-03-03T21:56:02;24.58;;;12.10;;